Time;durP1;ratioP1;P1;durP2;ratioP2;P2;SDS_P1;SDS_P2;PMS_P1;PMS_P2;Temp;Humidity;BMP_temperature;BMP_pressure;BME280_temperature;BME280_humidity;BME280_pressure;Samples;Min_cycle;Max_cycle;Signal;HPM_P1;HPM_P2
2023/09/01 00:01:10;;;;;;;16.15;8.15;;;;;;;23.21;79.93;100466.19;4970051;28;20463;-82
2023/09/01 00:03:35;;;;;;;15.48;8.32;;;;;;;23.35;80.68;100489.00;4970352;28;20041;-82
2023/09/01 00:06:02;;;;;;;17.13;9.75;;;;;;;23.43;81.01;100486.91;4970322;28;20022;-81
2023/09/01 00:08:28;;;;;;;23.85;10.15;;;;;;;23.47;82.96;100474.47;4970037;28;20057;-82
2023/09/01 00:10:54;;;;;;;14.00;9.38;;;;;;;23.33;83.20;100442.56;4953008;28;20019;-81
2023/09/01 00:13:19;;;;;;;13.68;8.60;;;;;;;23.46;83.49;100475.50;4973495;28;20034;-81
2023/09/01 00:15:45;;;;;;;13.75;8.88;;;;;;;23.48;83.07;100467.94;4974410;28;20049;-80
2023/09/01 00:18:11;;;;;;;21.35;10.20;;;;;;;23.46;83.90;100456.28;4970492;28;20039;-82
2023/09/01 00:20:36;;;;;;;15.18;9.50;;;;;;;23.56;84.10;100475.09;4970450;28;20380;-81
2023/09/01 00:23:03;;;;;;;16.02;9.13;;;;;;;23.45;84.11;100456.53;4970594;28;20038;-82
2023/09/01 00:25:29;;;;;;;14.90;10.13;;;;;;;23.59;83.92;100485.66;4969674;28;20026;-81
2023/09/01 00:27:55;;;;;;;17.42;10.10;;;;;;;23.60;84.52;100485.44;4969899;28;20031;-80
2023/09/01 00:30:20;;;;;;;17.90;10.82;;;;;;;23.52;86.08;100457.34;4969607;28;20059;-80
2023/09/01 00:32:46;;;;;;;20.33;11.27;;;;;;;23.62;86.49;100472.34;4970259;28;20022;-82
2023/09/01 00:35:11;;;;;;;28.65;12.80;;;;;;;23.64;87.09;100470.22;4969701;28;20071;-81
2023/09/01 00:37:37;;;;;;;14.85;10.77;;;;;;;23.63;87.47;100474.03;4970131;28;20054;-78
2023/09/01 00:40:03;;;;;;;18.77;11.88;;;;;;;23.65;87.10;100482.03;4973343;28;20039;-81
2023/09/01 00:42:29;;;;;;;23.20;11.38;;;;;;;23.63;87.07;100485.03;4955042;28;20035;-81
2023/09/01 00:44:54;;;;;;;16.20;10.82;;;;;;;23.69;86.87;100492.41;4973340;28;20606;-82
2023/09/01 00:47:20;;;;;;;25.40;11.88;;;;;;;23.51;86.86;100463.91;4974411;28;20085;-81
2023/09/01 00:49:46;;;;;;;14.43;11.77;;;;;;;23.63;87.59;100487.78;4979349;28;20031;-80
2023/09/01 00:52:12;;;;;;;20.55;11.18;;;;;;;23.63;87.16;100489.66;4975151;28;20030;-80
2023/09/01 00:54:37;;;;;;;20.95;11.18;;;;;;;23.61;87.32;100484.38;4973750;28;20042;-80
2023/09/01 00:57:03;;;;;;;18.08;11.25;;;;;;;23.62;88.25;100494.31;4972891;28;20466;-78
2023/09/01 00:59:28;;;;;;;15.90;11.55;;;;;;;23.60;88.53;100488.19;4973468;28;20031;-82
2023/09/01 01:01:54;;;;;;;21.23;11.13;;;;;;;23.59;89.09;100488.38;4973295;28;20392;-81
2023/09/01 01:04:22;;;;;;;23.13;11.10;;;;;;;23.33;88.80;100458.19;4972942;28;20050;-79
2023/09/01 01:06:58;;;;;;;19.40;10.57;;;;;;;23.45;88.39;100470.25;4973299;28;20133;-82
2023/09/01 01:10:02;;;;;;;18.30;10.43;;;;;;;23.54;88.52;100486.28;4972867;28;20027;-80
2023/09/01 01:12:43;;;;;;;18.52;11.45;;;;;;;23.52;87.64;100491.13;4973300;28;20027;-78
2023/09/01 01:15:11;;;;;;;19.88;10.55;;;;;;;23.52;87.49;100495.78;4973440;28;20031;-81
2023/09/01 01:17:39;;;;;;;24.33;12.07;;;;;;;23.53;87.17;100497.47;4973656;28;20033;-79
2023/09/01 01:20:13;;;;;;;12.52;9.95;;;;;;;23.51;86.44;100489.47;4973285;28;20113;-81
2023/09/01 01:22:46;;;;;;;15.70;11.25;;;;;;;23.51;87.01;100494.13;4955549;28;20031;-81
2023/09/01 01:25:13;;;;;;;18.75;9.90;;;;;;;23.35;87.10;100462.41;4973167;28;20077;-81
2023/09/01 01:27:41;;;;;;;16.38;10.85;;;;;;;23.52;86.97;100491.13;4972713;28;20106;-79
2023/09/01 01:30:09;;;;;;;20.85;11.60;;;;;;;23.53;86.84;100492.00;4972448;28;20070;-81
2023/09/01 01:32:35;;;;;;;20.70;10.60;;;;;;;23.46;86.39;100475.50;4973046;28;20684;-79
2023/09/01 01:35:13;;;;;;;21.95;11.35;;;;;;;23.50;86.09;100486.91;4975968;28;20030;-81
2023/09/01 01:37:58;;;;;;;24.40;10.88;;;;;;;23.50;85.94;100493.25;4972750;28;20061;-80
2023/09/01 01:40:26;;;;;;;16.05;11.02;;;;;;;23.37;85.28;100490.47;4972504;28;20031;-80
2023/09/01 01:42:56;;;;;;;16.02;10.18;;;;;;;23.46;85.50;100505.72;4954157;28;20047;-79
2023/09/01 01:45:24;;;;;;;15.20;9.77;;;;;;;23.46;85.74;100502.97;4972205;28;20066;-79
2023/09/01 01:47:51;;;;;;;14.68;10.35;;;;;;;23.49;85.22;100505.28;4972649;28;20077;-81
2023/09/01 01:50:17;;;;;;;29.85;11.45;;;;;;;23.44;85.32;100509.72;4971198;28;20039;-82
2023/09/01 01:52:42;;;;;;;21.92;10.77;;;;;;;23.27;85.65;100490.06;4972346;28;20109;-80
2023/09/01 01:55:08;;;;;;;21.83;10.45;;;;;;;23.38;85.85;100499.56;4972600;28;20122;-80
2023/09/01 01:57:36;;;;;;;19.90;10.30;;;;;;;23.31;85.11;100505.03;4972964;28;20031;-81
2023/09/01 02:00:02;;;;;;;15.05;10.15;;;;;;;23.22;85.45;100503.56;4972361;28;20031;-83
2023/09/01 02:02:28;;;;;;;14.25;9.40;;;;;;;23.24;86.04;100509.66;4972909;28;20113;-81
2023/09/01 02:04:53;;;;;;;15.73;10.02;;;;;;;23.22;86.42;100511.78;4973064;28;20396;-82
2023/09/01 02:07:19;;;;;;;19.13;11.13;;;;;;;23.20;85.68;100511.16;4972853;28;20030;-81
2023/09/01 02:09:44;;;;;;;22.23;10.68;;;;;;;23.22;85.56;100523.63;4973277;28;20584;-81
2023/09/01 02:12:10;;;;;;;24.08;10.43;;;;;;;23.21;85.07;100521.06;4972357;28;20527;-80
2023/09/01 02:14:36;;;;;;;19.63;10.73;;;;;;;23.14;85.01;100514.75;4972625;28;20439;-79
2023/09/01 02:17:03;;;;;;;17.30;11.18;;;;;;;23.16;85.27;100526.34;4973320;28;20039;-79
2023/09/01 02:19:29;;;;;;;13.82;9.93;;;;;;;23.12;85.19;100523.19;4972337;28;20023;-80
2023/09/01 02:21:54;;;;;;;17.63;10.48;;;;;;;23.09;84.61;100525.47;4972309;28;20037;-80
2023/09/01 02:24:21;;;;;;;22.85;11.93;;;;;;;23.07;85.14;100520.22;4977952;28;20058;-78
2023/09/01 02:26:46;;;;;;;18.75;9.88;;;;;;;23.11;85.84;100520.66;4997467;28;20027;-79
2023/09/01 02:29:12;;;;;;;16.48;10.68;;;;;;;22.95;85.23;100496.34;4997078;28;20074;-81
2023/09/01 02:31:38;;;;;;;16.58;9.20;;;;;;;23.08;84.87;100532.03;4990729;28;20043;-80
2023/09/01 02:34:05;;;;;;;17.92;9.63;;;;;;;23.02;84.64;100521.91;4983440;28;20073;-79
2023/09/01 02:36:35;;;;;;;13.93;8.63;;;;;;;23.08;84.58;100532.03;4990635;28;20023;-80
2023/09/01 02:39:01;;;;;;;33.13;11.38;;;;;;;23.14;84.56;100533.97;4985719;28;20031;-81
2023/09/01 02:41:28;;;;;;;26.08;10.45;;;;;;;23.10;84.67;100524.44;4972475;28;20031;-80
2023/09/01 02:43:53;;;;;;;19.63;9.43;;;;;;;23.09;83.96;100530.97;4972337;28;20479;-81
2023/09/01 02:46:20;;;;;;;16.20;8.88;;;;;;;23.18;83.77;100543.44;4972188;28;20027;-78
2023/09/01 02:48:45;;;;;;;17.48;9.50;;;;;;;23.13;83.56;100535.00;4971958;28;20089;-80
2023/09/01 02:51:11;;;;;;;15.55;8.93;;;;;;;23.13;83.54;100535.00;4971564;28;20031;-80
2023/09/01 02:53:37;;;;;;;19.92;8.68;;;;;;;23.11;83.70;100537.97;4976221;28;20069;-80
2023/09/01 02:56:03;;;;;;;17.52;8.52;;;;;;;23.16;83.70;100545.56;4971334;28;20495;-80
2023/09/01 02:58:28;;;;;;;12.57;8.38;;;;;;;23.07;83.01;100530.34;4971130;28;20038;-80
2023/09/01 03:00:54;;;;;;;14.00;8.63;;;;;;;23.17;83.21;100547.25;4970986;28;20049;-80
2023/09/01 03:03:21;;;;;;;19.98;8.60;;;;;;;23.14;82.64;100539.44;4971093;28;20092;-82
2023/09/01 03:05:50;;;;;;;18.23;8.40;;;;;;;23.14;82.16;100547.69;4971348;28;20038;-80
2023/09/01 03:08:20;;;;;;;12.32;8.00;;;;;;;23.19;81.27;100546.00;4970846;28;20031;-80
2023/09/01 03:10:46;;;;;;;25.05;9.07;;;;;;;23.18;81.53;100559.91;4970465;28;20122;-80
2023/09/01 03:13:11;;;;;;;20.63;9.20;;;;;;;23.07;81.20;100536.69;4971465;28;20509;-80
2023/09/01 03:15:37;;;;;;;18.95;8.25;;;;;;;23.18;80.79;100565.38;4971122;28;20458;-79
2023/09/01 03:18:03;;;;;;;22.83;8.10;;;;;;;23.19;80.82;100567.09;4971224;28;20022;-80
2023/09/01 03:20:28;;;;;;;22.17;7.63;;;;;;;23.20;80.67;100563.31;4970638;28;20086;-80
2023/09/01 03:22:54;;;;;;;10.80;8.27;;;;;;;23.16;80.67;100567.50;4971012;28;20034;-81
2023/09/01 03:25:19;;;;;;;29.85;9.25;;;;;;;23.11;80.90;100554.44;4970502;28;20601;-81
2023/09/01 03:27:45;;;;;;;34.55;10.10;;;;;;;23.15;81.57;100560.31;4970905;28;20479;-78
2023/09/01 03:30:11;;;;;;;21.90;8.95;;;;;;;23.01;81.48;100531.19;4971065;28;20563;-80
2023/09/01 03:32:37;;;;;;;25.20;8.57;;;;;;;23.12;81.32;100561.59;4971659;28;20051;-81
2023/09/01 03:35:03;;;;;;;18.67;8.30;;;;;;;23.15;80.51;100563.06;4971781;28;20030;-81
2023/09/01 03:37:29;;;;;;;27.67;7.80;;;;;;;23.17;79.65;100560.97;4970887;28;20105;-82
2023/09/01 03:39:54;;;;;;;20.30;8.15;;;;;;;23.19;78.84;100556.13;4970809;28;20103;-82
2023/09/01 03:42:19;;;;;;;21.23;8.18;;;;;;;22.96;76.94;100520.00;4970167;28;20031;-80
2023/09/01 03:44:45;;;;;;;10.98;7.22;;;;;;;23.16;75.37;100553.78;4969161;28;20038;-80
2023/09/01 03:47:10;;;;;;;17.35;7.47;;;;;;;22.97;74.33;100529.88;4970458;28;20082;-81
2023/09/01 03:49:36;;;;;;;20.42;8.02;;;;;;;23.09;74.19;100569.38;4970424;28;21189;-80
2023/09/01 03:52:02;;;;;;;23.90;6.28;;;;;;;22.87;73.75;100534.94;4969955;28;20121;-80
2023/09/01 03:54:27;;;;;;;12.18;6.50;;;;;;;23.05;72.33;100579.09;4969997;28;20093;-79
2023/09/01 03:56:53;;;;;;;18.25;6.18;;;;;;;23.07;71.98;100585.22;4970287;28;20114;-79
2023/09/01 03:59:19;;;;;;;18.10;7.35;;;;;;;22.99;72.45;100568.97;4970565;28;20045;-80
2023/09/01 04:01:45;;;;;;;18.77;6.65;;;;;;;23.09;72.05;100588.59;4970802;28;20031;-80
2023/09/01 04:04:11;;;;;;;13.25;6.60;;;;;;;23.10;71.60;100593.03;4970504;28;20026;-79
2023/09/01 04:06:38;;;;;;;22.33;7.75;;;;;;;23.15;72.09;100594.09;4952056;28;20049;-79
2023/09/01 04:09:04;;;;;;;21.27;7.22;;;;;;;23.14;72.05;100602.56;4970743;28;20058;-90
2023/09/01 04:11:29;;;;;;;14.93;7.07;;;;;;;23.16;72.58;100597.69;4973422;28;20061;-85
2023/09/01 04:13:55;;;;;;;35.85;7.90;;;;;;;23.24;72.81;100603.84;4979249;28;20384;-88
2023/09/01 04:16:21;;;;;;;35.03;7.57;;;;;;;23.28;72.84;100594.13;4975828;28;20027;-86
2023/09/01 04:18:47;;;;;;;53.88;9.55;;;;;;;23.30;72.34;100602.19;4974783;28;20081;-80
2023/09/01 04:21:13;;;;;;;13.70;6.57;;;;;;;23.40;70.73;100607.28;4975253;28;20030;-79
2023/09/01 04:23:40;;;;;;;11.75;6.68;;;;;;;23.27;69.52;100580.63;4980726;28;20033;-78
2023/09/01 04:26:06;;;;;;;20.98;5.97;;;;;;;23.38;68.67;100610.22;4973687;28;20130;-79
2023/09/01 04:28:33;;;;;;;25.08;6.78;;;;;;;23.40;68.64;100623.75;4923411;28;20679;-79
2023/09/01 04:30:59;;;;;;;15.35;7.10;;;;;;;23.35;68.37;100618.84;4972752;28;20059;-78
2023/09/01 04:33:28;;;;;;;22.30;6.30;;;;;;;23.41;68.46;100617.22;4972174;28;20503;-80
2023/09/01 04:36:03;;;;;;;19.00;6.70;;;;;;;23.21;67.76;100597.91;4972298;28;20414;-80
2023/09/01 04:38:29;;;;;;;13.90;6.60;;;;;;;23.42;67.48;100622.50;4972654;28;20081;-83
2023/09/01 04:40:58;;;;;;;30.75;6.57;;;;;;;23.44;67.77;100617.66;4972459;28;20560;-79
2023/09/01 04:43:28;;;;;;;22.20;6.20;;;;;;;23.48;66.36;100631.81;4972374;28;20499;-80
2023/09/01 04:45:54;;;;;;;16.85;5.75;;;;;;;23.40;66.75;100630.09;4972009;28;20035;-80
2023/09/01 04:48:20;;;;;;;9.52;5.88;;;;;;;23.38;66.48;100636.81;4971718;28;20026;-76
2023/09/01 04:50:46;;;;;;;11.90;5.13;;;;;;;23.27;66.28;100635.53;4971773;28;20031;-79
2023/09/01 04:53:12;;;;;;;17.98;6.43;;;;;;;23.22;66.20;100638.88;4971832;28;20038;-77
2023/09/01 04:55:38;;;;;;;12.48;5.97;;;;;;;22.99;66.13;100616.44;4971882;28;20151;-78
2023/09/01 04:58:03;;;;;;;22.98;6.15;;;;;;;23.11;66.62;100644.97;4972429;28;20102;-80
2023/09/01 05:00:28;;;;;;;10.60;5.80;;;;;;;23.07;66.32;100640.09;4973774;28;20073;-78
2023/09/01 05:02:54;;;;;;;30.80;7.32;;;;;;;22.93;66.41;100627.38;4978665;28;20506;-78
2023/09/01 05:05:20;;;;;;;13.27;5.80;;;;;;;22.90;66.90;100620.41;4974657;28;20475;-79
2023/09/01 05:07:46;;;;;;;14.93;5.80;;;;;;;23.09;66.92;100652.53;4971876;28;20046;-79
2023/09/01 05:10:11;;;;;;;14.40;6.80;;;;;;;23.04;66.68;100659.72;4971834;28;20034;-78
2023/09/01 05:12:36;;;;;;;18.35;5.85;;;;;;;22.99;67.13;100656.75;4971573;28;20030;-79
2023/09/01 05:15:03;;;;;;;28.27;5.75;;;;;;;22.94;67.17;100653.75;4971736;28;20062;-78
2023/09/01 05:17:29;;;;;;;20.83;6.28;;;;;;;22.73;67.33;100635.50;4972348;28;20038;-80
2023/09/01 05:19:54;;;;;;;15.57;6.40;;;;;;;22.78;67.61;100658.53;4971442;28;20022;-78
2023/09/01 05:22:20;;;;;;;12.77;5.72;;;;;;;22.77;67.83;100656.84;4971857;28;20030;-79
2023/09/01 05:24:47;;;;;;;16.65;6.50;;;;;;;22.77;67.02;100662.34;4971397;28;20415;-79
2023/09/01 05:27:13;;;;;;;11.88;6.15;;;;;;;22.70;67.36;100655.97;4971589;28;20130;-79
2023/09/01 05:29:38;;;;;;;12.52;6.57;;;;;;;22.53;67.75;100631.78;4971629;28;20059;-79
2023/09/01 05:32:04;;;;;;;14.88;6.13;;;;;;;22.70;67.75;100660.59;4934623;28;1158383;-79
2023/09/01 05:34:29;;;;;;;13.80;6.18;;;;;;;22.59;68.00;100647.44;4972758;28;20045;-78
2023/09/01 05:36:56;;;;;;;19.08;6.60;;;;;;;22.74;67.49;100664.63;4972856;28;20518;-77
2023/09/01 05:39:22;;;;;;;11.13;6.20;;;;;;;22.79;67.26;100662.13;4972886;28;20066;-78
2023/09/01 05:41:47;;;;;;;22.40;6.10;;;;;;;22.86;66.79;100670.38;4972434;28;20440;-78
2023/09/01 05:44:13;;;;;;;13.40;6.63;;;;;;;22.90;66.44;100666.19;4972531;28;20103;-78
2023/09/01 05:46:38;;;;;;;14.88;6.55;;;;;;;22.93;66.47;100649.31;4972053;28;20023;-78
2023/09/01 05:49:04;;;;;;;16.75;6.75;;;;;;;23.00;66.33;100658.41;4972135;28;20030;-78
2023/09/01 05:51:29;;;;;;;12.57;6.57;;;;;;;23.11;65.94;100652.34;4972032;28;20027;-80
2023/09/01 05:53:54;;;;;;;12.35;6.78;;;;;;;23.31;65.33;100672.47;4972164;28;20026;-80
2023/09/01 05:56:20;;;;;;;11.48;6.57;;;;;;;23.37;64.83;100657.91;4972320;28;20715;-80
2023/09/01 05:58:46;;;;;;;16.38;6.82;;;;;;;23.52;64.00;100658.63;4972167;28;20123;-78
2023/09/01 06:01:12;;;;;;;24.63;6.25;;;;;;;23.63;64.10;100663.50;4971800;28;20026;-80
2023/09/01 06:03:37;;;;;;;48.47;10.70;;;;;;;23.77;63.94;100662.47;4971824;28;20035;-79
2023/09/01 06:06:03;;;;;;;12.45;6.22;;;;;;;23.99;63.34;100678.75;4972644;28;20109;-79
2023/09/01 06:08:28;;;;;;;12.52;5.53;;;;;;;24.10;63.12;100670.72;4975140;28;20041;-79
2023/09/01 06:11:08;;;;;;;11.40;6.47;;;;;;;24.26;62.23;100678.56;4972899;28;20038;-80
2023/09/01 06:13:34;;;;;;;36.38;7.07;;;;;;;24.44;61.65;100677.91;4971859;28;20038;-80
2023/09/01 06:16:03;;;;;;;20.50;6.05;;;;;;;24.54;60.91;100694.84;4971736;28;20034;-81
2023/09/01 06:18:28;;;;;;;17.73;7.78;;;;;;;24.64;61.03;100695.25;4971376;28;20045;-80
2023/09/01 06:20:54;;;;;;;34.28;7.82;;;;;;;24.76;61.37;100698.19;4970903;28;20031;-79
2023/09/01 06:23:19;;;;;;;18.88;6.43;;;;;;;24.88;61.05;100699.22;4959726;28;20480;-80
2023/09/01 06:25:44;;;;;;;20.02;6.72;;;;;;;24.99;60.47;100711.47;4952050;28;20035;-80
2023/09/01 06:28:10;;;;;;;20.50;7.25;;;;;;;25.09;60.32;100720.13;4951999;28;20500;-79
2023/09/01 06:30:36;;;;;;;15.75;6.82;;;;;;;25.21;59.84;100726.63;4951798;28;20047;-80
2023/09/01 06:33:02;;;;;;;24.90;6.25;;;;;;;25.30;60.04;100723.44;4959026;28;20039;-79
2023/09/01 06:35:27;;;;;;;16.02;6.18;;;;;;;25.10;59.14;100680.53;4960800;28;20039;-79
2023/09/01 06:37:53;;;;;;;53.78;10.00;;;;;;;25.40;58.88;100715.56;4951825;28;20027;-80
2023/09/01 06:40:18;;;;;;;18.77;7.25;;;;;;;25.49;58.50;100718.06;4970371;28;20045;-80
2023/09/01 06:42:44;;;;;;;13.65;6.93;;;;;;;25.47;58.22;100703.66;4971248;28;20038;-80
2023/09/01 06:45:09;;;;;;;15.88;6.82;;;;;;;25.68;58.72;100715.22;4971037;28;20133;-80
2023/09/01 06:47:35;;;;;;;11.57;6.50;;;;;;;25.76;57.87;100717.72;4970987;28;20066;-80
2023/09/01 06:50:01;;;;;;;18.73;6.40;;;;;;;25.83;56.90;100717.66;4969006;28;20031;-80
2023/09/01 06:52:26;;;;;;;15.15;6.50;;;;;;;25.87;57.06;100725.25;4960987;28;20078;-79
2023/09/01 06:54:52;;;;;;;18.02;6.50;;;;;;;25.87;56.83;100714.22;4952013;28;20511;-79
2023/09/01 06:57:17;;;;;;;14.32;6.97;;;;;;;25.84;56.73;100692.63;4957746;28;20022;-78
2023/09/01 06:59:43;;;;;;;54.33;10.00;;;;;;;26.10;56.89;100723.84;4971360;28;20432;-79
2023/09/01 07:02:08;;;;;;;21.40;7.63;;;;;;;26.03;56.20;100699.06;4971305;28;20033;-79
2023/09/01 07:04:34;;;;;;;44.17;7.15;;;;;;;26.30;54.66;100732.81;4969396;28;20031;-79
2023/09/01 07:06:59;;;;;;;24.58;8.00;;;;;;;26.39;54.22;100729.56;4964877;28;20034;-79
2023/09/01 07:09:24;;;;;;;16.33;7.57;;;;;;;26.40;52.66;100719.38;4952322;28;20035;-80
2023/09/01 07:11:50;;;;;;;13.80;5.60;;;;;;;26.38;52.57;100724.28;4952582;28;20419;-80
2023/09/01 07:14:15;;;;;;;8.18;4.93;;;;;;;26.43;53.09;100725.28;4960506;28;20027;-79
2023/09/01 07:16:41;;;;;;;27.77;8.73;;;;;;;26.35;52.82;100711.78;4975862;28;20012;-79
2023/09/01 07:19:06;;;;;;;14.68;5.75;;;;;;;26.50;51.95;100726.06;4974619;28;20118;-79
2023/09/01 07:21:31;;;;;;;33.00;8.15;;;;;;;26.49;52.75;100729.03;4964446;28;20106;-80
2023/09/01 07:23:57;;;;;;;18.85;6.47;;;;;;;26.57;52.23;100739.81;4973079;28;20122;-80
2023/09/01 07:26:22;;;;;;;9.25;5.68;;;;;;;26.65;52.06;100735.91;4957519;28;20027;-81
2023/09/01 07:28:48;;;;;;;22.13;6.55;;;;;;;26.70;52.41;100736.91;4975582;28;20121;-81
2023/09/01 07:31:13;;;;;;;18.58;6.07;;;;;;;26.76;52.22;100740.66;4970668;28;20051;-80
2023/09/01 07:33:42;;;;;;;34.58;9.50;;;;;;;26.88;52.53;100745.25;4970683;28;20027;-78
2023/09/01 07:36:11;;;;;;;12.25;6.13;;;;;;;26.96;52.19;100733.91;4957035;28;20046;-81
2023/09/01 07:38:40;;;;;;;9.23;5.18;;;;;;;27.02;51.71;100740.44;4965066;28;20475;-78
2023/09/01 07:41:07;;;;;;;11.23;4.93;;;;;;;27.09;51.54;100740.38;4970352;28;20050;-78
2023/09/01 07:43:33;;;;;;;14.45;5.57;;;;;;;27.04;51.19;100732.75;4970479;28;20070;-79
2023/09/01 07:45:59;;;;;;;16.63;6.53;;;;;;;27.04;50.99;100736.38;4953017;28;20066;-80
2023/09/01 07:48:25;;;;;;;8.70;5.65;;;;;;;26.95;51.01;100723.94;4969754;28;20031;-80
2023/09/01 07:50:50;;;;;;;16.70;5.90;;;;;;;27.15;51.07;100753.25;4970602;28;20033;-80
2023/09/01 07:53:16;;;;;;;10.07;5.70;;;;;;;27.12;51.82;100724.19;4982982;28;20031;-79
2023/09/01 07:55:41;;;;;;;10.82;5.32;;;;;;;27.35;51.27;100740.03;4978976;28;20023;-80
2023/09/01 07:58:07;;;;;;;14.20;5.45;;;;;;;27.42;51.19;100741.69;4944154;28;20061;-80
2023/09/01 08:00:32;;;;;;;15.52;5.88;;;;;;;27.45;51.19;100735.69;4970160;28;20089;-79
2023/09/01 08:02:58;;;;;;;10.48;5.38;;;;;;;27.54;49.91;100733.44;4970234;28;20475;-79
2023/09/01 08:05:23;;;;;;;33.67;7.80;;;;;;;27.41;49.80;100700.44;4940514;28;20102;-79
2023/09/01 08:07:51;;;;;;;10.20;5.65;;;;;;;27.59;49.60;100722.53;4951806;28;20097;-78
2023/09/01 08:10:16;;;;;;;16.17;5.60;;;;;;;27.53;49.73;100693.06;4936394;28;20042;-79
2023/09/01 08:12:42;;;;;;;8.82;4.55;;;;;;;27.77;49.38;100728.00;4955666;28;20023;-79
2023/09/01 08:15:08;;;;;;;12.13;5.20;;;;;;;27.80;49.36;100724.78;4950925;28;20094;-78
2023/09/01 08:17:35;;;;;;;18.38;5.18;;;;;;;27.96;49.34;100734.31;4933454;28;20050;-78
2023/09/01 08:20:03;;;;;;;19.73;7.00;;;;;;;28.03;48.88;100732.31;4950693;28;20082;-78
2023/09/01 08:22:29;;;;;;;34.33;8.10;;;;;;;28.14;48.52;100733.44;4950971;28;20055;-78
2023/09/01 08:24:55;;;;;;;23.58;5.97;;;;;;;28.13;48.10;100726.25;4950663;28;20031;-78
2023/09/01 08:27:20;;;;;;;13.73;4.88;;;;;;;28.30;48.47;100739.13;4951905;28;20044;-80
2023/09/01 08:29:46;;;;;;;16.38;5.35;;;;;;;28.37;48.46;100727.97;4950432;28;20043;-80
2023/09/01 08:32:11;;;;;;;17.65;5.65;;;;;;;28.46;47.59;100737.59;4950843;28;20047;-79
2023/09/01 08:34:37;;;;;;;15.05;5.20;;;;;;;28.58;47.23;100741.22;4968475;28;20122;-78
2023/09/01 08:37:03;;;;;;;9.65;4.65;;;;;;;28.65;47.16;100736.44;4959555;28;20062;-79
2023/09/01 08:39:29;;;;;;;17.73;6.13;;;;;;;28.70;47.00;100738.47;4950693;28;20094;-79
2023/09/01 08:41:54;;;;;;;7.32;4.75;;;;;;;28.67;46.30;100725.97;4950481;28;20035;-81
2023/09/01 08:44:27;;;;;;;11.27;4.18;;;;;;;28.79;45.86;100732.34;4950065;28;20031;-79
2023/09/01 08:46:57;;;;;;;8.05;5.28;;;;;;;28.82;45.13;100736.56;4969276;28;20039;-80
2023/09/01 08:49:25;;;;;;;25.38;6.15;;;;;;;28.88;46.10;100721.75;4969545;28;20085;-80
2023/09/01 08:51:57;;;;;;;8.65;5.15;;;;;;;28.90;45.67;100717.63;4967727;28;20041;-79
2023/09/01 08:54:23;;;;;;;;;;;;;;;29.08;45.50;100724.97;4969922;28;20042;-80
2023/09/01 08:56:49;;;;;;;7.30;4.95;;;;;;;29.02;44.40;100712.91;4965316;28;19918;-79
2023/09/01 08:59:14;;;;;;;29.70;5.80;;;;;;;29.20;43.89;100730.50;4950962;28;20023;-79
2023/09/01 09:01:40;;;;;;;27.90;6.65;;;;;;;29.24;43.78;100718.69;4953785;28;20472;-79
2023/09/01 09:04:06;;;;;;;4.57;4.07;;;;;;;29.23;43.94;100711.44;4967571;28;20047;-79
2023/09/01 09:06:38;;;;;;;10.07;4.65;;;;;;;29.41;43.29;100719.63;4972876;28;20077;-79
2023/09/01 09:09:14;;;;;;;;;;;;;;;29.52;42.75;100720.66;4973398;28;20081;-79
2023/09/01 09:11:57;;;;;;;22.23;6.10;;;;;;;29.54;42.76;100724.03;4954565;28;19936;-79
2023/09/01 09:14:24;;;;;;;11.95;4.57;;;;;;;29.59;42.98;100727.75;4959551;28;20531;-78
2023/09/01 09:16:54;;;;;;;11.30;5.18;;;;;;;29.72;43.29;100723.84;4955126;28;20039;-80
2023/09/01 09:19:20;;;;;;;8.23;4.22;;;;;;;29.73;42.80;100717.19;4953298;28;20027;-79
2023/09/01 09:21:46;;;;;;;11.00;5.20;;;;;;;29.82;42.53;100721.28;4953401;28;20435;-77
2023/09/01 09:24:11;;;;;;;9.88;4.82;;;;;;;29.90;42.01;100720.03;4968158;28;20101;-78
2023/09/01 09:26:37;;;;;;;46.78;7.97;;;;;;;29.94;42.23;100708.19;4972851;28;20060;-78
2023/09/01 09:29:10;;;;;;;17.25;5.05;;;;;;;30.08;42.20;100720.66;4972595;28;20471;-81
2023/09/01 09:31:37;;;;;;;12.13;5.40;;;;;;;30.12;41.43;100716.28;4975964;28;20055;-78
2023/09/01 09:34:19;;;;;;;11.25;4.68;;;;;;;30.19;40.84;100721.66;4960030;28;20055;-79
2023/09/01 09:36:46;;;;;;;8.05;3.95;;;;;;;30.18;41.18;100726.38;4956382;28;20666;-79
2023/09/01 09:39:30;;;;;;;13.40;7.03;;;;;;;30.17;40.98;100724.72;4954704;28;20058;-79
2023/09/01 09:41:58;;;;;;;6.53;4.75;;;;;;;30.26;41.29;100711.25;4953079;28;20086;-79
2023/09/01 09:44:31;;;;;;;16.98;4.45;;;;;;;30.23;41.13;100687.63;4955056;28;20035;-78
2023/09/01 09:46:57;;;;;;;14.30;4.10;;;;;;;30.48;40.93;100711.38;4955058;28;20042;-79
2023/09/01 09:49:23;;;;;;;33.22;6.65;;;;;;;30.60;40.82;100717.66;4972217;28;20027;-79
2023/09/01 09:51:53;;;;;;;8.02;4.75;;;;;;;30.64;40.06;100716.06;4970611;28;20034;-78
2023/09/01 09:54:21;;;;;;;4.75;3.70;;;;;;;30.67;39.51;100712.78;4961144;28;20381;-79
2023/09/01 09:56:51;;;;;;;5.70;4.57;;;;;;;30.63;39.43;100717.16;4971267;28;20034;-79
2023/09/01 09:59:37;;;;;;;9.38;5.10;;;;;;;30.68;39.57;100704.19;4953199;28;20039;-80
2023/09/01 10:02:34;;;;;;;13.30;5.32;;;;;;;30.71;39.13;100692.56;4955833;28;20043;-80
2023/09/01 10:05:03;;;;;;;13.82;4.80;;;;;;;30.87;38.89;100715.84;4971624;28;20034;-79
2023/09/01 10:07:30;;;;;;;23.33;6.07;;;;;;;30.90;38.91;100711.72;4971276;28;20158;-78
2023/09/01 10:09:57;;;;;;;5.03;4.18;;;;;;;30.97;38.79;100707.69;4954945;28;20031;-79
2023/09/01 10:12:25;;;;;;;10.43;4.22;;;;;;;30.98;38.80;100703.81;4959020;28;20031;-79
2023/09/01 10:14:54;;;;;;;6.63;4.55;;;;;;;31.12;37.38;100716.25;4971847;28;20035;-81
2023/09/01 10:17:21;;;;;;;6.45;4.57;;;;;;;31.11;37.63;100709.00;4972704;28;20031;-80
2023/09/01 10:19:48;;;;;;;5.07;3.92;;;;;;;31.15;37.35;100712.94;4966707;28;20116;-77
2023/09/01 10:22:18;;;;;;;6.70;4.80;;;;;;;31.20;37.16;100695.47;4954430;28;20038;-79
2023/09/01 10:25:13;;;;;;;12.23;4.60;;;;;;;31.42;37.21;100706.59;4962911;28;20041;-79
2023/09/01 10:28:05;;;;;;;22.38;5.72;;;;;;;31.66;37.46;100694.97;4953818;28;20031;-79
2023/09/01 10:30:36;;;;;;;6.43;4.30;;;;;;;31.81;36.86;100702.63;4972012;28;20055;-81
2023/09/01 10:33:24;;;;;;;10.45;4.20;;;;;;;31.98;36.67;100708.94;4971573;28;20113;-80
2023/09/01 10:35:52;;;;;;;17.88;5.13;;;;;;;32.09;36.76;100705.16;4953167;28;20035;-79
2023/09/01 10:38:35;;;;;;;20.48;4.90;;;;;;;32.38;35.37;100716.84;4960782;28;20027;-81
2023/09/01 10:41:00;;;;;;;;;;;;;;;32.66;34.60;100704.53;4970624;28;20030;-79
2023/09/01 10:43:37;;;;;;;10.90;4.70;;;;;;;32.92;34.47;100706.38;4955227;28;19926;-79
2023/09/01 10:46:29;;;;;;;10.38;5.18;;;;;;;33.23;33.77;100708.25;4952209;28;20031;-79
2023/09/01 10:48:59;;;;;;;5.45;3.97;;;;;;;33.41;33.92;100706.91;4899215;29;20107;-78
2023/09/01 10:51:29;;;;;;;5.97;4.40;;;;;;;33.57;32.65;100702.22;4915866;29;20039;-80
2023/09/01 10:53:56;;;;;;;6.38;3.72;;;;;;;33.55;32.79;100698.84;4911936;29;20071;-79
2023/09/01 10:56:22;;;;;;;12.50;5.50;;;;;;;33.53;32.46;100703.88;4910976;29;20039;-80
2023/09/01 10:58:57;;;;;;;8.02;4.15;;;;;;;33.56;32.20;100697.75;4911446;29;20036;-80
2023/09/01 11:01:30;;;;;;;42.95;8.63;;;;;;;33.59;32.10;100691.59;4911803;29;20485;-78
2023/09/01 11:04:16;;;;;;;49.85;8.15;;;;;;;33.61;32.34;100695.84;4911227;29;20031;-79
2023/09/01 11:06:57;;;;;;;10.02;4.45;;;;;;;33.58;32.84;100692.72;4910721;29;20046;-80
2023/09/01 11:09:34;;;;;;;17.98;5.82;;;;;;;33.73;32.82;100693.63;4898347;29;20080;-79
2023/09/01 11:12:07;;;;;;;7.43;5.45;;;;;;;33.63;32.27;100698.34;4911567;29;20043;-80
2023/09/01 11:14:34;;;;;;;21.88;5.32;;;;;;;33.61;32.50;100689.44;4899082;29;20040;-79
2023/09/01 11:17:05;;;;;;;13.20;4.90;;;;;;;33.47;32.48;100683.50;4914368;29;20065;-78
2023/09/01 11:19:32;;;;;;;9.68;4.00;;;;;;;33.37;32.87;100672.31;4912583;29;20131;-79